Silver Point, Tennessee
Current Conditions -  °F | °C
As of 2:35 AM on Thursday 27 Nov 2014 (Local Time) from KSRB Reporting Station
Overcast Overcast  
Wind Chill: 30°   Ceiling: 2200
Heat Index: 37°   Visibility: 10mi
Dew Point: 34°   Wind: 10mph
Humidity: 87%   Direction: 280°W
Pressure: 30.08"   Gusts: NA
Location:  36.09°N, 85.73°W
Report Text: KSRB 270835Z AUTO 28009KT 230V320 10SM OVC022 03/01 A3008 RMK
Loading
Personal Weather Stations






























Interactive Weather Map New forecast layout! Learn more

10-Day Weather Forecast

Advertisements
Track Severe Weather on mobile